Time;durP1;ratioP1;P1;durP2;ratioP2;P2;SDS_P1;SDS_P2;PMS_P1;PMS_P2;Temp;Humidity;BMP_temperature;BMP_pressure;BME280_temperature;BME280_humidity;BME280_pressure;Samples;Min_cycle;Max_cycle;Signal;HPM_P1;HPM_P2
2023/01/24 00:01:48;;;;;;;17.95;10.68;;;7.90;99.90;;;;;;5082090;29;20031;-75
2023/01/24 00:04:19;;;;;;;19.73;11.20;;;8.10;99.90;;;;;;5081928;29;20028;-75
2023/01/24 00:06:50;;;;;;;18.48;11.27;;;8.30;99.90;;;;;;5081545;29;20084;-75
2023/01/24 00:09:21;;;;;;;17.77;12.57;;;7.90;99.90;;;;;;5083377;29;20044;-75
2023/01/24 00:11:52;;;;;;;17.10;11.88;;;8.00;99.90;;;;;;5085478;29;20087;-76
2023/01/24 00:14:23;;;;;;;19.70;11.57;;;7.90;99.90;;;;;;5085524;29;20036;-76
2023/01/24 00:16:53;;;;;;;16.92;11.90;;;7.90;99.90;;;;;;5085800;29;20043;-75
2023/01/24 00:19:24;;;;;;;20.92;11.00;;;7.90;99.90;;;;;;5085180;29;20046;-75
2023/01/24 00:21:55;;;;;;;16.45;11.73;;;7.70;99.90;;;;;;5085401;29;20067;-75
2023/01/24 00:24:27;;;;;;;24.65;11.32;;;7.90;99.90;;;;;;5085857;29;20769;-75
2023/01/24 00:26:58;;;;;;;15.98;11.05;;;7.50;99.90;;;;;;5085059;29;20036;-76
2023/01/24 00:29:28;;;;;;;20.15;11.02;;;8.00;99.90;;;;;;5082417;29;20054;-76
2023/01/24 00:31:59;;;;;;;18.88;13.23;;;7.90;99.90;;;;;;5085456;29;20059;-75
2023/01/24 00:34:31;;;;;;;16.38;11.05;;;7.60;99.90;;;;;;5085199;29;20123;-75
2023/01/24 00:37:01;;;;;;;15.68;12.25;;;8.10;99.90;;;;;;5085594;29;20043;-75
2023/01/24 00:39:32;;;;;;;16.98;12.55;;;7.90;99.90;;;;;;5084903;29;20790;-76
2023/01/24 00:42:03;;;;;;;15.88;9.50;;;8.10;99.90;;;;;;5085535;29;20032;-75
2023/01/24 00:44:35;;;;;;;18.88;11.70;;;7.80;99.90;;;;;;5084837;29;20099;-75
2023/01/24 00:47:07;;;;;;;16.75;11.45;;;7.70;99.90;;;;;;5084977;29;20024;-76
2023/01/24 00:49:37;;;;;;;16.85;11.77;;;7.80;99.90;;;;;;5084972;29;20125;-75
2023/01/24 00:52:08;;;;;;;15.50;11.13;;;7.80;99.90;;;;;;5084915;29;20115;-75
2023/01/24 00:54:39;;;;;;;17.38;11.10;;;7.90;99.90;;;;;;5084843;29;20043;-76
2023/01/24 00:57:10;;;;;;;14.65;11.02;;;8.10;99.90;;;;;;5085115;29;20087;-75
2023/01/24 00:59:42;;;;;;;12.57;9.63;;;7.80;99.90;;;;;;5084256;29;20012;-75
2023/01/24 01:02:12;;;;;;;14.73;11.90;;;7.60;99.90;;;;;;5084950;29;20028;-75
2023/01/24 01:04:43;;;;;;;17.27;11.48;;;7.50;99.90;;;;;;5067536;29;20039;-75
2023/01/24 01:07:14;;;;;;;14.75;11.70;;;7.70;99.90;;;;;;5084772;29;20036;-76
2023/01/24 01:09:46;;;;;;;16.23;11.15;;;8.00;99.90;;;;;;5084601;29;20428;-75
2023/01/24 01:12:17;;;;;;;12.90;9.23;;;8.00;99.90;;;;;;5084601;29;20036;-75
2023/01/24 01:14:48;;;;;;;19.75;10.77;;;7.90;99.90;;;;;;5084882;29;20043;-76
2023/01/24 01:17:18;;;;;;;14.73;10.93;;;7.80;99.90;;;;;;5084381;29;20036;-76
2023/01/24 01:19:53;;;;;;;15.63;11.25;;;7.60;99.90;;;;;;5083953;29;20552;-76
2023/01/24 01:22:24;;;;;;;12.93;10.70;;;7.50;99.90;;;;;;5081136;29;20040;-75
2023/01/24 01:24:54;;;;;;;17.77;11.23;;;7.80;99.90;;;;;;5084336;29;20035;-75
2023/01/24 01:27:25;;;;;;;21.40;11.68;;;7.90;99.90;;;;;;5084044;29;20044;-75
2023/01/24 01:29:56;;;;;;;23.38;12.20;;;7.80;99.90;;;;;;5084701;29;20071;-75
2023/01/24 01:32:27;;;;;;;13.30;10.77;;;7.80;99.90;;;;;;5083846;29;20028;-75
2023/01/24 01:34:58;;;;;;;13.15;10.63;;;7.60;99.90;;;;;;5084606;29;20052;-75
2023/01/24 01:37:29;;;;;;;16.15;11.20;;;7.50;99.90;;;;;;5083937;29;20059;-76
2023/01/24 01:39:59;;;;;;;16.95;11.32;;;7.80;99.90;;;;;;5084487;29;20385;-75
2023/01/24 01:42:49;;;;;;;18.17;11.45;;;7.60;99.90;;;;;;5083552;29;20044;-75
2023/01/24 01:45:42;;;;;;;14.40;11.80;;;7.70;99.90;;;;;;5082329;29;20154;-75
2023/01/24 01:48:33;;;;;;;14.68;10.48;;;8.00;99.90;;;;;;5084144;29;20020;-75
2023/01/24 01:51:10;;;;;;;14.20;11.20;;;7.80;99.90;;;;;;5084098;29;20055;-75
2023/01/24 01:53:54;;;;;;;15.20;9.63;;;7.80;99.90;;;;;;5083950;29;20020;-76
2023/01/24 01:56:38;;;;;;;12.82;9.55;;;7.70;99.90;;;;;;5083023;29;20036;-75
2023/01/24 01:59:22;;;;;;;14.63;9.43;;;7.90;99.90;;;;;;5084072;29;20035;-75
2023/01/24 02:01:55;;;;;;;14.80;11.45;;;7.80;99.90;;;;;;5083917;29;20100;-75
2023/01/24 02:04:33;;;;;;;13.95;11.15;;;7.70;99.90;;;;;;5083668;29;20036;-75
2023/01/24 02:07:12;;;;;;;19.80;11.45;;;7.60;99.90;;;;;;5083687;29;20032;-75
2023/01/24 02:09:46;;;;;;;14.48;10.45;;;7.70;99.90;;;;;;5083630;29;20032;-75
2023/01/24 02:12:35;;;;;;;11.85;9.73;;;7.50;99.90;;;;;;5066366;29;20072;-75
2023/01/24 02:18:03;;;;;;;14.05;10.48;;;7.40;99.90;;;;;;5084020;29;20103;-74
2023/01/24 02:20:41;;;;;;;15.65;11.10;;;7.70;99.90;;;;;;5082868;29;20067;-75
2023/01/24 02:23:43;;;;;;;12.20;10.35;;;7.70;99.90;;;;;;5063449;29;20047;-75
2023/01/24 02:26:13;;;;;;;14.63;11.20;;;7.80;99.90;;;;;;5066140;29;20107;-75
2023/01/24 02:28:50;;;;;;;20.77;11.40;;;7.50;99.90;;;;;;5082994;29;20040;-76
2023/01/24 02:31:22;;;;;;;17.35;11.48;;;7.70;99.90;;;;;;5082729;29;20028;-75
2023/01/24 02:33:53;;;;;;;20.80;11.48;;;7.50;99.90;;;;;;5083108;29;20051;-76
2023/01/24 02:36:36;;;;;;;18.15;11.38;;;7.70;99.90;;;;;;5082962;29;20036;-76
2023/01/24 02:39:12;;;;;;;14.55;10.55;;;7.50;99.90;;;;;;5082879;29;20031;-75
2023/01/24 02:41:50;;;;;;;13.60;10.30;;;7.70;99.90;;;;;;5083088;29;20040;-75
2023/01/24 02:44:51;;;;;;;14.27;10.35;;;7.70;99.90;;;;;;5082853;29;20040;-76
2023/01/24 02:47:32;;;;;;;15.27;10.40;;;7.70;99.90;;;;;;5080801;29;20040;-75
2023/01/24 02:50:03;;;;;;;14.75;11.77;;;7.50;99.90;;;;;;5083137;29;20047;-75
2023/01/24 02:55:24;;;;;;;15.70;9.80;;;7.90;99.90;;;;;;5082780;29;20051;-76
2023/01/24 02:58:05;;;;;;;12.05;10.55;;;8.00;99.90;;;;;;5083118;29;20028;-75
2023/01/24 03:00:41;;;;;;;16.08;10.57;;;7.70;99.90;;;;;;5082724;29;20408;-75
2023/01/24 03:03:12;;;;;;;15.50;11.43;;;8.10;99.90;;;;;;5082695;29;20067;-74
2023/01/24 03:05:58;;;;;;;16.73;11.25;;;7.60;99.90;;;;;;5082786;29;20112;-75
2023/01/24 03:08:34;;;;;;;13.77;11.18;;;7.90;99.90;;;;;;5082579;29;20048;-75
2023/01/24 03:11:05;;;;;;;15.15;9.75;;;7.90;99.90;;;;;;5065498;29;20028;-75
2023/01/24 03:36:19;;;;;;;20.27;12.63;;;7.70;99.90;;;;;;5082825;29;20043;-75
2023/01/24 03:41:41;;;;;;;11.88;9.95;;;8.10;99.90;;;;;;5081797;29;20555;-75
2023/01/24 03:44:12;;;;;;;12.10;10.60;;;8.10;99.90;;;;;;5081754;29;20024;-76
2023/01/24 03:46:44;;;;;;;13.95;9.10;;;8.10;99.90;;;;;;5081728;29;20020;-76
2023/01/24 03:49:16;;;;;;;15.45;10.15;;;7.60;99.90;;;;;;5081113;29;20126;-75
2023/01/24 03:54:37;;;;;;;17.13;11.65;;;7.60;99.90;;;;;;5081834;29;20038;-75
2023/01/24 03:57:07;;;;;;;15.27;12.10;;;7.70;99.90;;;;;;5082300;29;20020;-75
2023/01/24 03:59:38;;;;;;;12.23;10.75;;;7.60;99.90;;;;;;5081693;29;20036;-76
2023/01/24 04:02:09;;;;;;;16.48;10.68;;;7.50;99.90;;;;;;5082041;29;20362;-75
2023/01/24 04:07:29;;;;;;;12.40;9.93;;;7.70;99.90;;;;;;5081798;29;20506;-75
2023/01/24 04:10:00;;;;;;;15.00;10.32;;;7.60;99.90;;;;;;5065046;29;20059;-75
2023/01/24 04:12:32;;;;;;;13.25;9.90;;;7.40;99.90;;;;;;5081721;29;20154;-75
2023/01/24 04:15:03;;;;;;;11.68;10.27;;;7.40;99.90;;;;;;5064692;29;20621;-75
2023/01/24 04:17:34;;;;;;;15.18;13.10;;;7.50;99.90;;;;;;5079602;29;20389;-75
2023/01/24 04:20:06;;;;;;;13.13;9.55;;;7.60;99.90;;;;;;5081442;29;20040;-75
2023/01/24 04:22:37;;;;;;;11.93;10.13;;;7.70;99.90;;;;;;5081651;29;20133;-75
2023/01/24 04:25:10;;;;;;;14.30;11.02;;;7.60;99.90;;;;;;5078732;29;20483;-75
2023/01/24 04:27:41;;;;;;;13.82;9.80;;;7.70;99.90;;;;;;5081572;29;20032;-75
2023/01/24 04:30:14;;;;;;;11.98;10.02;;;7.50;99.90;;;;;;5081849;29;20444;-74
2023/01/24 04:32:45;;;;;;;17.33;9.13;;;7.30;99.90;;;;;;5064158;29;20127;-75
2023/01/24 04:35:23;;;;;;;10.15;9.10;;;7.70;99.90;;;;;;5079964;29;20028;-76
2023/01/24 04:37:59;;;;;;;12.68;8.90;;;7.70;99.90;;;;;;5081536;29;20028;-75
2023/01/24 04:40:29;;;;;;;14.38;10.40;;;7.50;99.90;;;;;;5081563;29;20028;-75
2023/01/24 04:43:00;;;;;;;11.23;10.02;;;7.50;99.90;;;;;;5082236;29;20028;-75
2023/01/24 04:45:32;;;;;;;13.30;10.45;;;7.30;99.90;;;;;;5081679;29;20024;-75
2023/01/24 04:48:04;;;;;;;13.95;9.10;;;7.40;99.90;;;;;;5081524;29;20029;-75
2023/01/24 04:50:35;;;;;;;14.07;9.70;;;7.50;99.90;;;;;;5079467;29;20044;-75
2023/01/24 04:53:06;;;;;;;12.18;10.57;;;7.60;99.90;;;;;;5081655;29;20079;-75
2023/01/24 04:55:37;;;;;;;13.52;9.40;;;7.70;99.90;;;;;;5083047;29;20028;-75
2023/01/24 04:58:08;;;;;;;11.75;9.27;;;7.80;99.90;;;;;;5084571;29;20024;-75
2023/01/24 05:00:38;;;;;;;15.85;10.85;;;7.30;99.90;;;;;;5084909;29;20032;-75
2023/01/24 05:03:09;;;;;;;13.65;9.10;;;7.40;99.90;;;;;;5085139;29;20082;-75
2023/01/24 05:05:40;;;;;;;14.45;10.98;;;7.70;99.90;;;;;;5084879;29;20502;-75
2023/01/24 05:08:11;;;;;;;19.02;12.57;;;7.80;99.90;;;;;;5084573;29;20051;-75
2023/01/24 05:10:42;;;;;;;13.43;9.07;;;7.80;99.90;;;;;;5084618;29;20027;-75
2023/01/24 05:13:13;;;;;;;11.82;9.50;;;7.80;99.90;;;;;;5085058;29;20033;-76
2023/01/24 05:15:48;;;;;;;11.00;9.55;;;7.30;99.90;;;;;;5084863;29;20035;-76
2023/01/24 05:18:19;;;;;;;12.68;9.48;;;7.70;99.90;;;;;;5084321;29;20026;-75
2023/01/24 05:20:50;;;;;;;10.15;9.15;;;7.50;99.90;;;;;;5084329;29;20052;-75
2023/01/24 05:23:21;;;;;;;13.73;9.45;;;7.50;99.90;;;;;;5084357;29;20035;-76
2023/01/24 05:25:52;;;;;;;11.70;8.57;;;7.40;99.90;;;;;;5084774;29;20459;-75
2023/01/24 05:28:22;;;;;;;14.52;10.40;;;7.30;99.90;;;;;;5084351;29;20044;-75
2023/01/24 05:31:01;;;;;;;11.00;9.45;;;7.50;99.90;;;;;;5084257;29;20032;-75
2023/01/24 05:33:32;;;;;;;12.20;9.52;;;7.50;99.90;;;;;;5084261;29;20032;-75
2023/01/24 05:36:06;;;;;;;13.75;10.20;;;7.60;99.90;;;;;;5084433;29;20020;-76
2023/01/24 05:38:37;;;;;;;15.57;10.68;;;7.60;99.90;;;;;;5083803;29;20063;-75
2023/01/24 05:41:10;;;;;;;16.20;9.75;;;7.70;99.90;;;;;;5067103;29;20048;-75
2023/01/24 05:43:41;;;;;;;15.57;10.32;;;7.70;99.90;;;;;;5084069;29;20024;-75
2023/01/24 05:46:15;;;;;;;13.80;10.60;;;7.60;99.90;;;;;;5082509;29;20030;-76
2023/01/24 05:48:47;;;;;;;11.70;9.20;;;7.70;99.90;;;;;;5083620;29;20036;-75
2023/01/24 05:51:22;;;;;;;14.20;9.52;;;7.50;99.90;;;;;;5082387;29;20121;-75
2023/01/24 05:53:52;;;;;;;11.98;10.55;;;7.60;99.90;;;;;;5083712;29;20028;-76
2023/01/24 05:56:23;;;;;;;11.32;9.15;;;7.80;99.90;;;;;;5084286;29;20033;-76
2023/01/24 05:58:54;;;;;;;14.00;8.55;;;7.40;99.90;;;;;;5083619;29;20040;-75
2023/01/24 06:01:25;;;;;;;13.73;9.82;;;7.60;99.90;;;;;;5083978;29;20032;-76
2023/01/24 06:03:56;;;;;;;10.15;7.72;;;7.50;99.90;;;;;;5084146;29;20051;-75
2023/01/24 06:06:27;;;;;;;13.65;9.75;;;7.50;99.90;;;;;;5083537;29;20032;-75
2023/01/24 06:08:58;;;;;;;11.13;9.43;;;7.80;99.90;;;;;;5080737;29;20075;-75
2023/01/24 06:11:29;;;;;;;12.30;8.52;;;7.40;99.90;;;;;;5083505;29;20029;-75
2023/01/24 06:14:00;;;;;;;15.57;9.20;;;7.50;99.90;;;;;;5083314;29;20123;-75
2023/01/24 06:16:39;;;;;;;11.75;9.05;;;7.30;99.90;;;;;;5083231;29;20095;-76
2023/01/24 06:19:14;;;;;;;14.60;9.85;;;7.60;99.90;;;;;;5082352;29;20040;-76
2023/01/24 06:21:49;;;;;;;10.00;8.82;;;7.50;99.90;;;;;;5082725;29;20063;-75
2023/01/24 06:24:26;;;;;;;14.10;8.48;;;7.40;99.90;;;;;;5083032;29;20032;-76
2023/01/24 06:26:59;;;;;;;11.68;9.00;;;7.40;99.90;;;;;;5083155;29;20508;-75
2023/01/24 06:29:30;;;;;;;9.13;7.97;;;7.50;99.90;;;;;;5083152;29;20055;-75
2023/01/24 06:32:10;;;;;;;15.75;9.65;;;7.60;99.90;;;;;;5083253;29;20487;-75
2023/01/24 06:35:15;;;;;;;15.25;9.13;;;7.40;99.90;;;;;;5082569;29;20115;-75
2023/01/24 06:37:48;;;;;;;12.73;8.38;;;7.60;99.90;;;;;;5080793;29;20032;-76
2023/01/24 06:40:22;;;;;;;12.23;7.75;;;7.70;99.90;;;;;;5082621;29;20031;-75
2023/01/24 06:42:53;;;;;;;11.30;8.00;;;8.00;99.90;;;;;;5082718;29;20040;-75
2023/01/24 06:45:25;;;;;;;11.25;8.40;;;7.70;99.90;;;;;;5082672;29;20036;-75
2023/01/24 06:47:57;;;;;;;14.05;9.23;;;7.50;99.90;;;;;;5082670;29;20500;-75
2023/01/24 06:50:31;;;;;;;13.32;10.25;;;7.40;99.90;;;;;;5081047;29;20048;-76
2023/01/24 06:53:02;;;;;;;13.05;9.57;;;7.60;99.90;;;;;;5083052;29;20115;-74
2023/01/24 06:55:33;;;;;;;11.25;8.60;;;7.60;99.90;;;;;;5082554;29;20131;-74
2023/01/24 06:58:04;;;;;;;15.25;9.15;;;7.50;99.90;;;;;;5082824;29;20029;-74
2023/01/24 07:00:35;;;;;;;13.73;9.90;;;7.60;99.90;;;;;;5082336;29;20555;-75
2023/01/24 07:03:07;;;;;;;12.73;9.65;;;7.40;99.90;;;;;;5082824;29;20032;-74
2023/01/24 07:05:38;;;;;;;12.80;9.48;;;7.70;99.90;;;;;;5082340;29;20461;-75
2023/01/24 07:08:10;;;;;;;14.13;10.30;;;7.70;99.90;;;;;;5082640;29;20044;-75
2023/01/24 07:10:40;;;;;;;12.38;10.30;;;7.80;99.90;;;;;;5082756;29;20032;-76
2023/01/24 07:13:11;;;;;;;15.63;11.23;;;7.50;99.90;;;;;;5079509;29;20068;-75
2023/01/24 07:15:42;;;;;;;14.18;10.07;;;7.80;99.90;;;;;;5082005;29;20024;-76
2023/01/24 07:18:15;;;;;;;15.68;10.48;;;7.50;99.90;;;;;;5080194;29;20028;-77
2023/01/24 07:20:46;;;;;;;13.90;10.70;;;7.80;99.90;;;;;;5081434;29;20412;-75
2023/01/24 07:23:21;;;;;;;19.42;12.85;;;7.70;99.90;;;;;;5081173;29;20054;-74
2023/01/24 07:25:52;;;;;;;16.50;14.90;;;7.60;99.90;;;;;;5082525;29;20036;-71
2023/01/24 07:28:23;;;;;;;21.75;19.88;;;7.60;99.90;;;;;;5081848;29;20062;-72
2023/01/24 07:30:54;;;;;;;23.35;21.33;;;7.70;99.90;;;;;;5082119;29;20465;-80
2023/01/24 07:33:25;;;;;;;19.63;17.02;;;7.80;99.90;;;;;;5080875;29;20379;-73
2023/01/24 07:35:56;;;;;;;21.50;19.50;;;7.50;99.90;;;;;;5083420;29;20091;-78
2023/01/24 07:38:27;;;;;;;19.73;17.50;;;7.70;99.90;;;;;;5082343;29;20902;-76
2023/01/24 07:40:58;;;;;;;19.13;17.33;;;7.70;99.90;;;;;;5082035;29;20046;-75
2023/01/24 07:43:30;;;;;;;22.75;20.88;;;7.80;99.90;;;;;;5081484;29;20032;-77
2023/01/24 07:46:01;;;;;;;20.48;16.17;;;7.60;99.90;;;;;;5080400;29;20909;-75
2023/01/24 07:48:33;;;;;;;24.75;22.63;;;7.60;99.90;;;;;;5080891;29;20051;-78
2023/01/24 07:51:04;;;;;;;23.20;21.08;;;8.00;99.90;;;;;;5081701;29;20425;-77
2023/01/24 07:53:37;;;;;;;21.67;19.58;;;7.80;99.90;;;;;;5081298;29;20365;-71
2023/01/24 07:56:08;;;;;;;22.70;17.17;;;7.80;99.90;;;;;;5081665;29;20103;-73
2023/01/24 07:58:41;;;;;;;20.33;18.27;;;7.90;99.90;;;;;;5081286;29;20115;-72
2023/01/24 08:01:23;;;;;;;24.58;22.35;;;7.80;99.90;;;;;;5078660;29;20440;-76
2023/01/24 08:03:56;;;;;;;22.65;20.45;;;7.60;99.90;;;;;;5063276;29;20510;-75
2023/01/24 08:06:27;;;;;;;17.50;15.70;;;7.70;99.90;;;;;;5081410;29;20047;-77
2023/01/24 08:08:58;;;;;;;22.30;20.15;;;7.70;99.90;;;;;;5083013;29;21410;-80
2023/01/24 08:11:29;;;;;;;16.83;15.23;;;7.80;99.90;;;;;;5081014;29;20066;-78
2023/01/24 08:14:05;;;;;;;18.55;16.83;;;7.80;99.90;;;;;;5081472;29;20036;-78
2023/01/24 08:19:17;;;;;;;17.70;16.08;;;7.80;99.90;;;;;;5425610;23;20068;-80
2023/01/24 08:21:48;;;;;;;19.63;17.65;;;7.80;99.90;;;;;;5037662;29;20031;-74
2023/01/24 08:24:18;;;;;;;24.92;18.20;;;7.80;99.90;;;;;;5045322;29;20033;-80
2023/01/24 08:26:50;;;;;;;15.40;13.77;;;7.60;99.90;;;;;;5043960;29;20080;-74
2023/01/24 08:29:21;;;;;;;18.35;16.60;;;7.70;99.90;;;;;;5042830;29;20033;-78
2023/01/24 08:31:52;;;;;;;19.38;17.38;;;7.90;99.90;;;;;;5045220;29;20028;-80
2023/01/24 08:34:24;;;;;;;18.15;16.35;;;8.10;99.90;;;;;;5046112;29;20359;-78
2023/01/24 08:36:55;;;;;;;21.63;19.52;;;7.80;99.90;;;;;;5045917;29;20401;-78
2023/01/24 08:39:26;;;;;;;17.35;14.60;;;7.60;99.90;;;;;;5044632;29;20041;-78
2023/01/24 08:41:57;;;;;;;19.27;14.90;;;7.90;99.90;;;;;;5045711;29;20114;-79
2023/01/24 08:44:28;;;;;;;22.77;20.65;;;7.90;99.90;;;;;;5045781;29;20044;-79
2023/01/24 08:46:59;;;;;;;20.10;14.75;;;7.60;99.90;;;;;;5045503;29;20037;-79
2023/01/24 08:49:30;;;;;;;17.05;15.32;;;7.60;99.90;;;;;;5045476;29;20104;-79
2023/01/24 08:52:01;;;;;;;21.27;17.48;;;7.60;99.90;;;;;;5045399;29;20480;-79
2023/01/24 08:54:32;;;;;;;15.93;14.40;;;7.80;99.90;;;;;;5045330;29;20029;-79
2023/01/24 08:57:04;;;;;;;16.05;13.63;;;7.60;99.90;;;;;;5045286;29;20033;-78
2023/01/24 08:59:35;;;;;;;16.02;14.48;;;7.90;99.90;;;;;;5045028;29;20021;-79
2023/01/24 09:02:05;;;;;;;25.10;22.88;;;8.10;99.90;;;;;;5044782;29;20036;-75
2023/01/24 09:04:36;;;;;;;18.17;13.70;;;7.90;99.90;;;;;;5044076;29;20029;-75
2023/01/24 09:07:07;;;;;;;20.50;12.98;;;8.00;99.90;;;;;;5043277;29;20045;-78
2023/01/24 09:09:38;;;;;;;14.98;13.00;;;8.00;99.90;;;;;;5044296;29;20037;-76
2023/01/24 09:12:09;;;;;;;14.73;12.13;;;8.30;99.90;;;;;;5044615;29;20500;-76
2023/01/24 09:14:40;;;;;;;19.20;14.25;;;8.30;99.90;;;;;;5043481;29;20089;-81
2023/01/24 09:17:10;;;;;;;18.50;14.68;;;8.10;99.90;;;;;;5043254;29;20025;-74
2023/01/24 09:19:41;;;;;;;18.58;12.90;;;7.90;99.90;;;;;;5044886;29;20053;-77
2023/01/24 09:22:12;;;;;;;18.80;14.27;;;8.10;99.90;;;;;;5044789;29;20359;-79
2023/01/24 09:24:43;;;;;;;19.58;13.45;;;7.70;99.90;;;;;;5044769;29;20025;-78
2023/01/24 09:27:14;;;;;;;20.25;16.75;;;7.80;99.90;;;;;;5043740;29;20108;-79
2023/01/24 09:29:44;;;;;;;23.08;20.65;;;8.30;99.90;;;;;;5042297;29;20037;-77
2023/01/24 09:32:16;;;;;;;22.73;18.20;;;8.20;99.90;;;;;;5044799;29;20109;-78
2023/01/24 09:34:48;;;;;;;21.75;19.55;;;8.10;99.90;;;;;;5045025;29;20037;-79
2023/01/24 09:37:20;;;;;;;26.27;21.63;;;7.90;99.90;;;;;;5045160;29;20028;-77
2023/01/24 09:39:55;;;;;;;29.95;23.70;;;8.10;99.90;;;;;;5044910;29;20021;-75
2023/01/24 09:42:35;;;;;;;27.52;24.35;;;7.90;99.90;;;;;;5044889;29;20037;-75
2023/01/24 09:45:16;;;;;;;25.33;23.02;;;7.70;99.90;;;;;;5059156;29;20108;-74
2023/01/24 09:48:10;;;;;;;21.17;18.52;;;7.60;99.90;;;;;;5042739;29;20562;-79
2023/01/24 09:50:51;;;;;;;22.85;20.45;;;7.60;99.90;;;;;;5044809;29;20061;-74
2023/01/24 09:53:29;;;;;;;16.23;12.93;;;7.40;99.90;;;;;;5044940;29;20089;-76
2023/01/24 09:56:02;;;;;;;14.40;11.65;;;7.30;99.90;;;;;;5044738;29;20041;-75
2023/01/24 09:58:43;;;;;;;18.40;14.65;;;7.20;99.90;;;;;;5043429;29;20040;-76
2023/01/24 10:01:15;;;;;;;21.02;14.25;;;7.20;99.90;;;;;;5042908;29;20025;-75
2023/01/24 10:03:46;;;;;;;15.38;12.85;;;7.30;99.90;;;;;;5042113;29;20040;-74
2023/01/24 10:06:25;;;;;;;14.68;8.48;;;7.30;99.90;;;;;;5044652;29;20017;-77
2023/01/24 10:09:25;;;;;;;17.55;9.30;;;7.20;99.90;;;;;;5044428;29;20155;-71
2023/01/24 10:12:06;;;;;;;14.70;8.73;;;7.20;99.90;;;;;;5030541;29;20076;-75
2023/01/24 10:14:40;;;;;;;16.77;8.90;;;7.10;99.90;;;;;;5044216;29;20121;-75
2023/01/24 10:17:24;;;;;;;12.43;9.82;;;7.10;99.90;;;;;;5044270;29;20116;-76
2023/01/24 10:20:07;;;;;;;13.25;8.43;;;6.80;99.90;;;;;;5042639;29;20561;-74
2023/01/24 10:22:59;;;;;;;11.23;7.70;;;6.90;99.90;;;;;;5058344;29;20036;-77
2023/01/24 10:25:56;;;;;;;14.43;7.78;;;7.20;99.90;;;;;;5044292;29;20033;-76
2023/01/24 10:28:44;;;;;;;16.70;8.25;;;7.00;99.90;;;;;;5043803;29;20052;-74
2023/01/24 10:31:24;;;;;;;11.55;8.38;;;7.10;99.90;;;;;;5043761;29;20037;-75
2023/01/24 10:33:58;;;;;;;;;;;7.10;99.90;;;;;;5044843;29;20033;-76
2023/01/24 10:36:43;;;;;;;15.95;11.35;;;6.90;99.90;;;;;;5043343;29;19919;-75
2023/01/24 10:39:14;;;;;;;10.63;8.35;;;6.80;99.90;;;;;;5043867;29;20833;-74
2023/01/24 10:41:48;;;;;;;15.38;9.20;;;7.10;99.90;;;;;;5044199;29;20081;-76
2023/01/24 10:44:27;;;;;;;17.48;8.73;;;6.80;99.90;;;;;;5043960;29;20033;-76
2023/01/24 10:47:29;;;;;;;11.02;8.45;;;7.20;99.90;;;;;;5058003;29;20048;-73
2023/01/24 10:50:04;;;;;;;11.75;8.85;;;7.00;99.90;;;;;;5043129;29;21366;-73
2023/01/24 10:52:36;;;;;;;11.50;8.10;;;7.20;99.90;;;;;;5042999;29;20065;-75
2023/01/24 10:55:37;;;;;;;13.50;9.18;;;7.00;99.90;;;;;;5057358;29;20064;-76
2023/01/24 10:58:47;;;;;;;11.02;7.55;;;6.90;99.90;;;;;;5043215;29;20469;-77
2023/01/24 11:01:21;;;;;;;12.80;8.40;;;6.90;99.90;;;;;;5040136;29;20120;-76
2023/01/24 11:03:54;;;;;;;13.57;7.47;;;7.10;99.90;;;;;;5043494;29;20033;-78
2023/01/24 11:06:28;;;;;;;10.48;7.10;;;7.40;99.90;;;;;;5043520;29;20040;-77
2023/01/24 11:09:14;;;;;;;12.45;7.85;;;7.00;99.90;;;;;;5042869;29;20049;-76
2023/01/24 11:11:52;;;;;;;13.98;7.32;;;7.20;99.90;;;;;;5039460;29;20107;-76
2023/01/24 11:14:27;;;;;;;10.45;7.03;;;7.00;99.90;;;;;;5041891;29;20029;-75
2023/01/24 11:16:59;;;;;;;17.00;12.75;;;7.10;99.90;;;;;;5042735;29;20121;-80
2023/01/24 11:19:33;;;;;;;16.60;15.00;;;7.10;99.90;;;;;;5041531;29;20057;-75
2023/01/24 11:22:21;;;;;;;16.95;15.25;;;6.90;99.90;;;;;;5042994;29;20071;-75
2023/01/24 11:25:00;;;;;;;19.83;17.85;;;7.00;99.90;;;;;;5042609;29;20365;-74
2023/01/24 11:27:31;;;;;;;25.20;23.00;;;7.10;99.90;;;;;;5043236;29;20131;-71
2023/01/24 11:30:34;;;;;;;16.08;11.90;;;7.20;99.90;;;;;;5041940;29;20061;-72
2023/01/24 11:33:35;;;;;;;12.77;10.07;;;7.10;99.90;;;;;;5042215;29;20048;-70
2023/01/24 11:36:19;;;;;;;10.60;7.30;;;7.20;99.90;;;;;;5042567;29;20453;-72
2023/01/24 11:38:54;;;;;;;12.70;9.43;;;7.10;99.90;;;;;;5041107;29;20150;-70
2023/01/24 11:41:37;;;;;;;12.93;9.15;;;7.40;99.90;;;;;;5042877;29;20037;-73
2023/01/24 11:44:36;;;;;;;9.63;8.60;;;7.50;99.90;;;;;;5040982;29;20029;-70
2023/01/24 11:47:18;;;;;;;10.68;8.30;;;7.40;99.90;;;;;;5041300;29;20045;-72
2023/01/24 11:50:01;;;;;;;8.40;7.30;;;7.00;99.90;;;;;;5040950;29;20079;-72
2023/01/24 11:53:03;;;;;;;14.02;9.30;;;7.10;99.90;;;;;;5042548;29;20040;-71
2023/01/24 11:55:55;;;;;;;9.27;7.78;;;7.00;99.90;;;;;;5042531;29;20063;-71
2023/01/24 11:58:52;;;;;;;8.70;6.70;;;7.20;99.90;;;;;;5042001;29;20037;-73
2023/01/24 12:02:03;;;;;;;8.77;5.85;;;7.50;99.90;;;;;;5042757;29;20465;-73
2023/01/24 12:04:46;;;;;;;;;;;7.10;99.90;;;;;;5044857;29;20434;-73
2023/01/24 12:07:53;;;;;;;6.70;5.95;;;7.20;99.90;;;;;;5043712;29;19918;-71
2023/01/24 12:10:45;;;;;;;6.68;5.95;;;7.20;99.90;;;;;;5039916;29;20053;-74
2023/01/24 12:13:42;;;;;;;6.00;5.45;;;7.00;99.90;;;;;;5044503;29;20056;-73
2023/01/24 12:16:35;;;;;;;8.68;7.97;;;6.90;99.90;;;;;;5060776;29;20064;-71
2023/01/24 12:19:22;;;;;;;14.32;13.02;;;7.30;99.90;;;;;;5046373;29;20140;-71
2023/01/24 12:21:58;;;;;;;11.95;10.73;;;7.10;99.90;;;;;;5046306;29;20037;-70
2023/01/24 12:24:36;;;;;;;13.77;12.65;;;7.10;99.90;;;;;;5046172;29;20029;-70
2023/01/24 12:27:19;;;;;;;17.10;15.57;;;7.00;99.90;;;;;;5046123;29;20032;-73
2023/01/24 12:30:11;;;;;;;11.20;10.30;;;7.00;99.90;;;;;;5043712;29;20066;-71
2023/01/24 12:32:58;;;;;;;15.38;11.40;;;7.00;99.90;;;;;;5043292;29;20396;-73
2023/01/24 12:35:32;;;;;;;14.68;13.20;;;6.90;99.90;;;;;;5045959;29;20033;-72
2023/01/24 12:38:22;;;;;;;12.85;11.07;;;7.10;99.90;;;;;;5045932;29;20041;-71
2023/01/24 12:40:59;;;;;;;14.63;13.43;;;7.30;99.90;;;;;;5045830;29;20029;-72
2023/01/24 12:43:59;;;;;;;14.52;13.30;;;7.00;99.90;;;;;;5045576;29;20371;-72
2023/01/24 12:46:33;;;;;;;20.67;19.13;;;7.00;99.90;;;;;;5046333;29;20793;-72
2023/01/24 12:49:24;;;;;;;15.57;14.25;;;6.90;99.90;;;;;;5045537;29;20060;-73
2023/01/24 12:51:55;;;;;;;14.15;12.85;;;7.00;99.90;;;;;;5045023;29;20477;-75
2023/01/24 12:54:35;;;;;;;17.88;16.10;;;7.10;99.90;;;;;;5045246;29;20824;-74
2023/01/24 12:57:31;;;;;;;16.90;15.55;;;7.20;99.90;;;;;;5045436;29;20041;-72
2023/01/24 13:00:04;;;;;;;12.90;8.75;;;7.40;99.90;;;;;;5045687;29;20405;-77
2023/01/24 13:02:51;;;;;;;13.02;10.90;;;7.00;99.90;;;;;;5045464;29;20082;-77
2023/01/24 13:05:40;;;;;;;11.85;10.23;;;7.00;99.90;;;;;;5043640;29;20088;-72
2023/01/24 13:08:34;;;;;;;13.40;12.20;;;7.30;99.90;;;;;;5045600;29;20065;-75
2023/01/24 13:11:23;;;;;;;18.15;16.23;;;7.30;99.90;;;;;;5045211;29;20071;-72
2023/01/24 13:14:12;;;;;;;19.17;16.67;;;7.10;99.90;;;;;;5044150;29;20801;-75
2023/01/24 13:17:02;;;;;;;14.25;11.20;;;7.10;99.90;;;;;;5041965;29;20374;-74
2023/01/24 13:19:41;;;;;;;9.30;8.30;;;7.10;99.90;;;;;;5045140;29;20061;-74
2023/01/24 13:22:34;;;;;;;10.25;8.13;;;6.90;99.90;;;;;;5059305;29;20481;-73
2023/01/24 13:25:38;;;;;;;10.52;8.77;;;7.10;99.90;;;;;;5045319;29;20040;-73
2023/01/24 13:28:35;;;;;;;10.05;8.43;;;7.10;99.90;;;;;;5045054;29;20048;-74
2023/01/24 13:31:09;;;;;;;8.88;7.20;;;6.80;99.90;;;;;;5045268;29;20037;-73
2023/01/24 13:33:47;;;;;;;12.52;8.65;;;7.20;99.90;;;;;;5045257;29;20036;-74
2023/01/24 13:36:26;;;;;;;12.35;8.48;;;6.80;99.90;;;;;;5045219;29;20112;-75
2023/01/24 13:38:57;;;;;;;11.75;9.27;;;7.10;99.90;;;;;;5045017;29;20041;-73
2023/01/24 13:41:31;;;;;;;9.80;8.88;;;7.20;99.90;;;;;;5045118;29;20033;-75
2023/01/24 13:44:03;;;;;;;17.30;10.52;;;7.20;99.90;;;;;;5044905;29;20104;-73
2023/01/24 13:46:47;;;;;;;18.63;13.23;;;7.20;99.90;;;;;;5044595;29;20506;-73
2023/01/24 13:49:33;;;;;;;40.83;26.13;;;7.10;99.90;;;;;;5042242;29;20041;-73
2023/01/24 13:52:33;;;;;;;17.27;15.25;;;7.00;99.90;;;;;;5044465;29;20033;-71
2023/01/24 13:55:29;;;;;;;13.48;12.05;;;7.00;99.90;;;;;;5044358;29;20094;-73
2023/01/24 13:58:06;;;;;;;9.80;7.45;;;6.70;99.90;;;;;;5017739;29;21342;-72
2023/01/24 14:00:49;;;;;;;18.65;15.13;;;7.20;99.90;;;;;;5044506;29;20037;-72
2023/01/24 14:03:27;;;;;;;20.17;18.52;;;6.80;99.90;;;;;;5042940;29;20029;-71
2023/01/24 14:06:11;;;;;;;14.85;13.57;;;7.10;99.90;;;;;;5044049;29;20041;-70
2023/01/24 14:08:47;;;;;;;14.77;13.55;;;6.90;99.90;;;;;;5046907;29;20028;-71